createdAt,value
2023-03-13T00:01:35.233Z,1.25
2023-03-13T00:04:03.150Z,1.60
2023-03-13T00:06:33.325Z,1.25
2023-03-13T00:09:01.743Z,1.20
2023-03-13T00:11:29.566Z,1.38
2023-03-13T00:13:58.552Z,1.15
2023-03-13T00:16:27.564Z,1.42
2023-03-13T00:18:56.874Z,1.63
2023-03-13T00:23:52.585Z,1.70
2023-03-13T00:26:22.637Z,1.25
2023-03-13T00:28:51.487Z,1.40
2023-03-13T00:31:29.907Z,1.60
2023-03-13T00:34:00.783Z,1.85
2023-03-13T00:36:30.892Z,1.88
2023-03-13T00:38:58.890Z,1.48
2023-03-13T00:41:31.812Z,1.38
2023-03-13T00:43:59.823Z,1.75
2023-03-13T00:46:32.459Z,1.55
2023-03-13T00:48:59.890Z,1.40
2023-03-13T00:51:28.944Z,0.95
2023-03-13T00:53:59.940Z,1.23
2023-03-13T00:56:27.907Z,1.20
2023-03-13T00:58:55.135Z,0.98
2023-03-13T01:01:35.256Z,1.00
2023-03-13T01:04:08.043Z,1.75
2023-03-13T01:06:38.048Z,1.83
2023-03-13T01:09:06.792Z,1.23
2023-03-13T01:11:39.330Z,1.50
2023-03-13T01:14:10.073Z,1.50
2023-03-13T01:16:38.374Z,1.10
2023-03-13T01:19:10.563Z,1.10
2023-03-13T01:21:41.519Z,1.50
2023-03-13T01:24:09.045Z,1.52
2023-03-13T01:26:36.388Z,1.23
2023-03-13T01:29:04.174Z,1.65
2023-03-13T01:31:34.132Z,1.40
2023-03-13T01:34:04.875Z,0.80
2023-03-13T01:36:33.070Z,1.00
2023-03-13T01:39:00.976Z,1.67
2023-03-13T01:41:30.662Z,1.73
2023-03-13T01:43:59.046Z,1.35
2023-03-13T01:46:32.240Z,1.38
2023-03-13T01:49:24.179Z,1.63
2023-03-13T01:52:11.213Z,1.60
2023-03-13T01:55:08.623Z,1.40
2023-03-13T01:57:42.828Z,1.10
2023-03-13T02:00:18.936Z,1.02
2023-03-13T02:02:53.223Z,1.00
2023-03-13T02:05:24.246Z,1.30
2023-03-13T02:07:56.970Z,1.23
2023-03-13T02:10:26.522Z,1.27
2023-03-13T02:12:58.994Z,1.63
2023-03-13T02:15:28.263Z,1.48
2023-03-13T02:17:56.885Z,1.30
2023-03-13T02:20:25.446Z,1.85
2023-03-13T02:23:15.980Z,0.63
2023-03-13T02:25:50.661Z,0.95
2023-03-13T02:28:35.111Z,1.48
2023-03-13T02:31:05.941Z,1.20
2023-03-13T02:33:39.180Z,1.25
2023-03-13T02:36:08.654Z,1.50
2023-03-13T02:38:55.014Z,1.10
2023-03-13T02:41:24.198Z,1.55
2023-03-13T02:46:20.769Z,1.23
2023-03-13T02:48:54.243Z,1.23
2023-03-13T02:51:36.306Z,1.17
2023-03-13T02:54:09.492Z,1.60
2023-03-13T02:56:39.430Z,1.40
2023-03-13T02:59:07.752Z,1.35
2023-03-13T03:01:38.775Z,1.38
2023-03-13T03:04:07.736Z,0.98
2023-03-13T03:06:35.081Z,1.80
2023-03-13T03:11:35.284Z,1.25
2023-03-13T03:14:07.800Z,1.02
2023-03-13T03:16:40.053Z,1.50
2023-03-13T03:19:08.001Z,1.02
2023-03-13T03:21:35.341Z,1.27
2023-03-13T03:24:03.238Z,1.20
2023-03-13T03:26:30.724Z,1.08
2023-03-13T03:28:58.195Z,1.05
2023-03-13T03:31:26.191Z,1.40
2023-03-13T03:33:53.705Z,0.93
2023-03-13T03:36:22.691Z,1.00
2023-03-13T03:38:50.763Z,1.40
2023-03-13T03:41:21.672Z,1.85
2023-03-13T03:43:49.515Z,2.08
2023-03-13T03:46:20.789Z,1.00
2023-03-13T03:49:15.255Z,1.17
2023-03-13T03:51:46.952Z,1.52
2023-03-13T03:54:14.326Z,2.08
2023-03-13T03:56:41.833Z,1.60
2023-03-13T03:59:09.070Z,0.85
2023-03-13T04:01:45.572Z,1.58
2023-03-13T04:04:14.315Z,1.23
2023-03-13T04:06:44.587Z,1.15
2023-03-13T04:09:12.292Z,1.63
2023-03-13T04:11:39.651Z,1.58
2023-03-13T04:14:09.284Z,2.13
2023-03-13T04:16:36.693Z,1.08
2023-03-13T04:19:03.969Z,0.95
2023-03-13T04:21:32.319Z,0.90
2023-03-13T04:24:04.094Z,0.85
2023-03-13T04:26:32.740Z,1.50
2023-03-13T04:29:00.488Z,1.85
2023-03-13T04:31:50.955Z,1.73
2023-03-13T04:34:36.909Z,1.50
2023-03-13T04:37:22.784Z,1.50
2023-03-13T04:40:13.816Z,0.82
2023-03-13T04:42:47.114Z,1.67
2023-03-13T04:45:37.379Z,1.77
2023-03-13T04:48:33.999Z,1.98
2023-03-13T04:51:25.879Z,1.02
2023-03-13T04:54:12.294Z,1.15
2023-03-13T04:56:58.545Z,1.48
2023-03-13T04:59:53.160Z,1.77
2023-03-13T05:02:20.386Z,1.95
2023-03-13T05:04:53.517Z,1.35
2023-03-13T05:07:39.275Z,1.08
2023-03-13T05:10:32.784Z,1.40
2023-03-13T05:13:12.015Z,0.80
2023-03-13T05:15:59.196Z,1.92
2023-03-13T05:18:46.404Z,1.90
2023-03-13T05:21:40.511Z,1.13
2023-03-13T05:24:25.501Z,1.65
2023-03-13T05:27:19.280Z,1.20
2023-03-13T05:29:54.985Z,1.20
2023-03-13T05:32:50.524Z,1.67
2023-03-13T05:35:39.163Z,1.13
2023-03-13T05:38:29.776Z,1.45
2023-03-13T05:41:09.572Z,1.08
2023-03-13T05:43:57.117Z,1.42
2023-03-13T05:46:47.135Z,1.50
2023-03-13T05:49:33.116Z,1.80
2023-03-13T05:52:03.346Z,2.03
2023-03-13T05:54:36.663Z,1.88
2023-03-13T05:57:20.215Z,1.67
2023-03-13T05:59:58.016Z,1.33
2023-03-13T06:02:44.546Z,1.70
2023-03-13T06:05:16.787Z,1.67
2023-03-13T06:07:44.956Z,1.05
2023-03-13T06:10:12.721Z,1.85
2023-03-13T06:12:40.036Z,1.17
2023-03-13T06:15:12.218Z,1.10
2023-03-13T06:17:52.172Z,1.45
2023-03-13T06:20:19.396Z,1.77
2023-03-13T06:22:46.728Z,1.70
2023-03-13T06:25:14.090Z,1.98
2023-03-13T06:27:42.349Z,1.55
2023-03-13T06:30:12.219Z,0.90
2023-03-13T06:32:39.584Z,1.42
2023-03-13T06:35:07.488Z,1.55
2023-03-13T06:37:34.883Z,1.80
2023-03-13T06:40:02.088Z,1.45
2023-03-13T06:42:29.375Z,1.58
2023-03-13T06:44:56.592Z,1.38
2023-03-13T06:47:23.904Z,2.03
2023-03-13T06:49:51.244Z,1.60
2023-03-13T06:52:19.452Z,3.28
2023-03-13T06:54:47.531Z,2.75
2023-03-13T06:57:15.778Z,1.98
2023-03-13T06:59:43.008Z,2.35
2023-03-13T07:02:16.285Z,1.60
2023-03-13T07:04:45.264Z,1.50
2023-03-13T07:07:25.853Z,1.25
2023-03-13T07:09:58.494Z,1.63
2023-03-13T07:12:26.773Z,1.15
2023-03-13T07:14:54.043Z,2.28
2023-03-13T07:17:21.279Z,1.58
2023-03-13T07:19:48.540Z,1.00
2023-03-13T07:22:16.917Z,1.60
2023-03-13T07:24:44.216Z,1.15
2023-03-13T07:27:11.603Z,1.58
2023-03-13T07:29:38.930Z,1.02
2023-03-13T07:32:06.665Z,1.52
2023-03-13T07:34:34.012Z,1.30
2023-03-13T07:37:03.288Z,1.33
2023-03-13T07:39:30.518Z,0.70
2023-03-13T07:41:58.107Z,0.65
2023-03-13T07:44:25.410Z,0.55
2023-03-13T07:46:53.684Z,1.27
2023-03-13T07:49:20.935Z,0.70
2023-03-13T07:51:51.076Z,1.20
2023-03-13T07:54:18.351Z,0.80
2023-03-13T07:56:45.549Z,0.75
2023-03-13T07:59:12.834Z,0.80
2023-03-13T08:01:40.077Z,1.08
2023-03-13T08:04:07.638Z,0.80
2023-03-13T08:06:38.959Z,0.75
2023-03-13T08:09:06.711Z,0.82
2023-03-13T08:11:34.489Z,1.00
2023-03-13T08:14:01.737Z,0.70
2023-03-13T08:16:34.661Z,0.85
2023-03-13T08:19:05.158Z,1.08
2023-03-13T08:21:35.503Z,0.80
2023-03-13T08:24:06.859Z,0.77
2023-03-13T08:26:36.058Z,0.80
2023-03-13T08:29:09.929Z,1.08
2023-03-13T08:31:42.018Z,1.60
2023-03-13T08:34:10.978Z,1.10
2023-03-13T08:36:38.882Z,0.98
2023-03-13T08:39:20.406Z,1.05
2023-03-13T08:41:47.741Z,0.80
2023-03-13T08:44:17.108Z,0.80
2023-03-13T08:46:44.860Z,0.70
2023-03-13T08:49:13.236Z,0.88
2023-03-13T08:51:40.882Z,0.82
2023-03-13T08:54:08.214Z,0.55
2023-03-13T08:56:36.743Z,0.40
2023-03-13T08:59:05.578Z,0.45
2023-03-13T09:01:34.524Z,0.68
2023-03-13T09:04:04.487Z,0.30
2023-03-13T09:06:35.617Z,0.20
2023-03-13T09:09:05.388Z,0.75
2023-03-13T09:11:33.458Z,0.50
2023-03-13T09:14:08.086Z,0.50
2023-03-13T09:16:35.311Z,0.55
2023-03-13T09:19:02.767Z,0.50
2023-03-13T09:21:33.061Z,0.52
2023-03-13T09:24:01.010Z,0.20
2023-03-13T09:26:28.988Z,0.20
2023-03-13T09:28:56.863Z,0.30
2023-03-13T09:31:31.977Z,0.52
2023-03-13T09:36:28.166Z,0.35
2023-03-13T09:38:57.817Z,0.22
2023-03-13T09:41:32.674Z,0.47
2023-03-13T09:44:26.611Z,0.60
2023-03-13T09:46:58.938Z,0.20
2023-03-13T09:49:41.007Z,0.55
2023-03-13T09:52:16.297Z,0.40
2023-03-13T09:55:25.046Z,0.40
2023-03-13T09:58:02.205Z,0.28
2023-03-13T10:00:34.230Z,0.30
2023-03-13T10:03:20.642Z,0.30
2023-03-13T10:05:51.788Z,0.35
2023-03-13T10:08:24.817Z,0.35
2023-03-13T10:11:06.658Z,0.50
2023-03-13T10:13:48.330Z,0.50
2023-03-13T10:16:52.560Z,0.30
2023-03-13T10:19:32.439Z,0.20
2023-03-13T10:22:03.831Z,0.35
2023-03-13T10:24:46.808Z,0.10
2023-03-13T10:27:15.789Z,0.63
2023-03-13T10:29:43.142Z,0.40
2023-03-13T10:32:14.294Z,0.50
2023-03-13T10:34:58.016Z,0.30
2023-03-13T10:37:31.475Z,0.30
2023-03-13T10:40:23.110Z,0.38
2023-03-13T10:42:52.566Z,0.22
2023-03-13T10:45:25.136Z,0.40
2023-03-13T10:48:00.000Z,0.32
2023-03-13T10:50:34.174Z,0.50
2023-03-13T10:53:40.953Z,0.45
2023-03-13T10:56:14.237Z,0.25
2023-03-13T10:58:42.853Z,0.73
2023-03-13T11:04:00.772Z,0.38
2023-03-13T11:06:35.122Z,0.50
2023-03-13T11:09:10.433Z,0.50
2023-03-13T11:11:55.550Z,0.57
2023-03-13T11:14:27.137Z,1.13
2023-03-13T11:16:57.857Z,0.75
2023-03-13T11:19:35.611Z,0.57
2023-03-13T11:22:21.073Z,0.50
2023-03-13T11:25:17.924Z,0.43
2023-03-13T11:28:17.075Z,0.50
2023-03-13T11:31:07.444Z,0.52
2023-03-13T11:34:02.333Z,0.60
2023-03-13T11:36:47.414Z,0.60
2023-03-13T11:39:17.932Z,0.40
2023-03-13T11:42:01.194Z,0.50
2023-03-13T11:44:51.251Z,0.47
2023-03-13T11:47:35.522Z,0.52
2023-03-13T11:50:31.162Z,0.55
2023-03-13T11:53:09.995Z,0.63
2023-03-13T11:55:51.709Z,0.60
2023-03-13T11:58:51.456Z,0.60
2023-03-13T12:01:21.189Z,0.60
2023-03-13T12:04:10.612Z,0.50
2023-03-13T12:06:50.560Z,0.40
2023-03-13T12:09:34.154Z,0.35
2023-03-13T12:12:06.291Z,0.40
2023-03-13T12:14:39.346Z,0.40
2023-03-13T12:17:12.143Z,0.82
2023-03-13T12:20:08.105Z,0.45
2023-03-13T12:23:12.759Z,0.30
2023-03-13T12:25:49.053Z,0.28
2023-03-13T12:28:29.035Z,0.50
2023-03-13T12:31:22.784Z,1.02
2023-03-13T12:34:17.201Z,0.60
2023-03-13T12:36:48.490Z,0.40
2023-03-13T12:39:30.791Z,0.52
2023-03-13T12:42:16.860Z,0.47
2023-03-13T12:44:44.695Z,0.52
2023-03-13T12:47:32.642Z,0.28
2023-03-13T12:50:27.854Z,0.50
2023-03-13T12:53:21.648Z,0.17
2023-03-13T12:56:28.421Z,0.50
2023-03-13T12:58:59.154Z,0.77
2023-03-13T13:01:39.873Z,0.22
2023-03-13T13:04:28.268Z,0.32
2023-03-13T13:06:57.331Z,0.70
2023-03-13T13:09:30.854Z,0.60
2023-03-13T13:12:08.037Z,0.20
2023-03-13T13:14:57.915Z,0.45
2023-03-13T13:17:31.648Z,0.70
2023-03-13T13:20:19.283Z,0.82
2023-03-13T13:22:47.420Z,0.70
2023-03-13T13:25:15.137Z,0.50
2023-03-13T13:27:42.308Z,0.60
2023-03-13T13:30:19.265Z,0.40
2023-03-13T13:32:54.372Z,0.40
2023-03-13T13:35:40.236Z,0.30
2023-03-13T13:38:19.793Z,0.40
2023-03-13T13:41:10.036Z,0.40
2023-03-13T13:43:47.442Z,0.30
2023-03-13T13:46:34.652Z,0.50
2023-03-13T13:51:42.579Z,0.47
2023-03-13T13:54:12.892Z,0.50
2023-03-13T13:56:47.318Z,0.82
2023-03-13T13:59:24.730Z,0.40
2023-03-13T14:02:30.746Z,0.50
2023-03-13T14:05:06.321Z,0.50
2023-03-13T14:07:57.405Z,0.85
2023-03-13T14:10:33.785Z,0.52
2023-03-13T14:13:03.634Z,0.40
2023-03-13T14:15:34.346Z,0.40
2023-03-13T14:18:30.959Z,0.50
2023-03-13T14:21:14.015Z,0.30
2023-03-13T14:23:44.071Z,0.30
2023-03-13T14:26:12.734Z,0.40
2023-03-13T14:28:44.879Z,0.50
2023-03-13T14:31:22.662Z,0.40
2023-03-13T14:33:50.438Z,0.30
2023-03-13T14:36:17.793Z,0.43
2023-03-13T14:38:54.582Z,0.40
2023-03-13T14:41:35.965Z,0.40
2023-03-13T14:44:15.005Z,0.90
2023-03-13T14:46:43.543Z,0.40
2023-03-13T14:49:18.941Z,0.35
2023-03-13T14:51:49.963Z,0.47
2023-03-13T14:54:33.922Z,0.22
2023-03-13T14:57:14.906Z,0.60
2023-03-13T14:59:43.423Z,0.65
2023-03-13T15:02:27.393Z,0.20
2023-03-13T15:05:11.024Z,0.40
2023-03-13T15:07:52.645Z,0.60
2023-03-13T15:10:33.336Z,1.30
2023-03-13T15:13:22.452Z,0.57
2023-03-13T15:15:50.835Z,0.60
2023-03-13T15:18:23.078Z,0.50
2023-03-13T15:21:12.927Z,0.40
2023-03-13T15:23:49.744Z,0.57
2023-03-13T15:26:17.486Z,0.28
2023-03-13T15:28:45.222Z,0.40
2023-03-13T15:31:13.334Z,0.30
2023-03-13T15:33:41.972Z,0.25
2023-03-13T15:36:10.587Z,0.25
2023-03-13T15:38:38.327Z,0.20
2023-03-13T15:41:05.748Z,0.30
2023-03-13T15:43:33.083Z,0.30
2023-03-13T15:46:03.181Z,0.30
2023-03-13T15:48:32.402Z,0.30
2023-03-13T15:51:02.480Z,0.30
2023-03-13T15:53:35.790Z,0.30
2023-03-13T15:56:17.643Z,0.20
2023-03-13T15:58:46.268Z,0.22
2023-03-13T16:03:46.321Z,0.20
2023-03-13T16:08:45.446Z,0.20
2023-03-13T16:11:14.739Z,0.10
2023-03-13T16:13:42.418Z,0.30
2023-03-13T16:16:21.297Z,0.20
2023-03-13T16:18:50.290Z,0.30
2023-03-13T16:21:24.339Z,0.30
2023-03-13T16:23:51.784Z,0.30
2023-03-13T16:26:22.164Z,0.43
2023-03-13T16:28:51.701Z,0.20
2023-03-13T16:31:22.135Z,0.40
2023-03-13T16:34:13.027Z,0.30
2023-03-13T16:36:40.328Z,0.47
2023-03-13T16:39:11.966Z,0.38
2023-03-13T16:41:39.184Z,0.60
2023-03-13T16:44:06.400Z,0.70
2023-03-13T16:46:42.400Z,0.88
2023-03-13T16:49:14.802Z,0.40
2023-03-13T16:51:42.237Z,0.47
2023-03-13T16:54:12.039Z,0.30
2023-03-13T16:56:42.961Z,0.47
2023-03-13T16:59:17.763Z,0.57
2023-03-13T17:01:47.016Z,0.30
2023-03-13T17:04:16.404Z,0.50
2023-03-13T17:06:44.805Z,0.35
2023-03-13T17:09:16.267Z,0.45
2023-03-13T17:11:44.877Z,0.32
2023-03-13T17:14:13.414Z,0.82
2023-03-13T17:16:45.163Z,0.50
2023-03-13T17:19:16.768Z,0.70
2023-03-13T17:21:44.044Z,0.60
2023-03-13T17:24:11.451Z,0.70
2023-03-13T17:26:39.817Z,1.58
2023-03-13T17:29:08.914Z,1.35
2023-03-13T17:31:39.787Z,0.80
2023-03-13T17:34:08.519Z,0.30
2023-03-13T17:36:36.272Z,0.40
2023-03-13T17:39:05.917Z,0.40
2023-03-13T17:41:34.937Z,0.45
2023-03-13T17:44:03.764Z,0.98
2023-03-13T17:46:41.797Z,0.80
2023-03-13T17:49:12.342Z,0.80
2023-03-13T17:51:41.480Z,0.50
2023-03-13T17:54:09.166Z,0.50
2023-03-13T17:56:39.436Z,0.90
2023-03-13T17:59:12.204Z,0.65
2023-03-13T18:01:39.600Z,0.70
2023-03-13T18:04:06.862Z,0.60
2023-03-13T18:06:40.092Z,1.20
2023-03-13T18:09:11.985Z,0.93
2023-03-13T18:11:39.538Z,0.80
2023-03-13T18:14:06.947Z,0.65
2023-03-13T18:16:40.389Z,0.75
2023-03-13T18:19:16.771Z,0.77
2023-03-13T18:21:45.459Z,0.80
2023-03-13T18:24:13.499Z,0.63
2023-03-13T18:26:42.523Z,0.60
2023-03-13T18:29:16.251Z,0.50
2023-03-13T18:31:43.837Z,0.50
2023-03-13T18:34:13.111Z,0.40
2023-03-13T18:36:40.624Z,0.88
2023-03-13T18:39:07.946Z,0.57
2023-03-13T18:41:35.257Z,0.70
2023-03-13T18:44:02.505Z,0.75
2023-03-13T18:46:33.357Z,0.70
2023-03-13T18:49:01.096Z,0.60
2023-03-13T18:51:30.689Z,0.40
2023-03-13T18:53:58.006Z,0.43
2023-03-13T18:56:30.938Z,0.40
2023-03-13T18:58:58.732Z,0.95
2023-03-13T19:01:29.264Z,0.60
2023-03-13T19:03:57.803Z,0.57
2023-03-13T19:06:31.852Z,0.70
2023-03-13T19:09:01.362Z,0.40
2023-03-13T19:11:31.098Z,0.70
2023-03-13T19:13:59.348Z,0.70
2023-03-13T19:16:35.082Z,0.73
2023-03-13T19:19:13.565Z,0.75
2023-03-13T19:21:41.286Z,0.90
2023-03-13T19:24:08.822Z,0.75
2023-03-13T19:26:45.385Z,1.23
2023-03-13T19:29:22.630Z,1.00
2023-03-13T19:31:50.433Z,0.73
2023-03-13T19:34:17.782Z,1.35
2023-03-13T19:36:47.445Z,1.00
2023-03-13T19:39:26.323Z,0.90
2023-03-13T19:41:53.772Z,1.15
2023-03-13T19:44:21.641Z,1.05
2023-03-13T19:46:48.967Z,1.13
2023-03-13T19:49:18.748Z,1.30
2023-03-13T19:51:46.807Z,1.10
2023-03-13T19:54:14.745Z,1.52
2023-03-13T19:56:44.464Z,1.85
2023-03-13T19:59:20.854Z,1.10
2023-03-13T20:01:48.111Z,1.25
2023-03-13T20:04:15.906Z,1.38
2023-03-13T20:06:43.684Z,1.15
2023-03-13T20:09:14.755Z,1.30
2023-03-13T20:11:42.744Z,1.38
2023-03-13T20:14:10.089Z,1.15
2023-03-13T20:16:37.744Z,1.33
2023-03-13T20:19:05.173Z,1.00
2023-03-13T20:21:37.395Z,1.25
2023-03-13T20:24:04.897Z,1.23
2023-03-13T20:26:32.322Z,1.00
2023-03-13T20:28:59.630Z,0.90
2023-03-13T20:31:29.686Z,1.10
2023-03-13T20:33:57.924Z,0.93
2023-03-13T20:36:25.642Z,1.10
2023-03-13T20:38:52.904Z,1.10
2023-03-13T20:41:24.613Z,0.90
2023-03-13T20:43:53.417Z,0.90
2023-03-13T20:46:21.302Z,1.20
2023-03-13T20:48:48.925Z,0.88
2023-03-13T20:51:16.312Z,1.05
2023-03-13T20:53:43.949Z,1.13
2023-03-13T20:56:11.961Z,1.20
2023-03-13T20:58:39.496Z,0.90
2023-03-13T21:01:07.700Z,1.00
2023-03-13T21:03:36.289Z,0.90
2023-03-13T21:06:15.258Z,0.95
2023-03-13T21:08:43.162Z,1.30
2023-03-13T21:11:17.726Z,1.00
2023-03-13T21:13:45.265Z,1.50
2023-03-13T21:16:13.577Z,1.58
2023-03-13T21:18:41.013Z,1.20
2023-03-13T21:21:12.194Z,0.93
2023-03-13T21:23:39.990Z,0.77
2023-03-13T21:26:07.468Z,1.23
2023-03-13T21:28:34.766Z,0.90
2023-03-13T21:31:14.562Z,1.10
2023-03-13T21:33:42.829Z,0.90
2023-03-13T21:36:11.117Z,1.00
2023-03-13T21:38:38.503Z,0.93
2023-03-13T21:41:15.077Z,1.10
2023-03-13T21:43:43.451Z,1.25
2023-03-13T21:46:12.880Z,0.82
2023-03-13T21:48:41.868Z,1.15
2023-03-13T21:53:42.261Z,1.10
2023-03-13T21:56:15.073Z,0.52
2023-03-13T21:58:45.355Z,1.00
2023-03-13T22:01:14.219Z,1.00
2023-03-13T22:03:42.458Z,1.00
2023-03-13T22:06:15.374Z,0.65
2023-03-13T22:08:43.389Z,0.60
2023-03-13T22:11:11.440Z,0.70
2023-03-13T22:13:39.041Z,0.60
2023-03-13T22:16:07.206Z,0.80
2023-03-13T22:18:34.585Z,0.70
2023-03-13T22:21:02.564Z,0.68
2023-03-13T22:23:30.381Z,0.70
2023-03-13T22:25:58.774Z,0.45
2023-03-13T22:28:26.787Z,0.68
2023-03-13T22:30:54.579Z,0.60
2023-03-13T22:33:21.926Z,0.50
2023-03-13T22:35:52.384Z,0.80
2023-03-13T22:38:20.676Z,0.40
2023-03-13T22:40:56.528Z,0.68
2023-03-13T22:43:23.991Z,0.57
2023-03-13T22:45:51.287Z,0.40
2023-03-13T22:48:18.519Z,0.40
2023-03-13T22:50:46.496Z,0.43
2023-03-13T22:53:15.515Z,0.65
2023-03-13T22:55:43.254Z,0.50
2023-03-13T22:58:10.566Z,0.50
2023-03-13T23:00:37.807Z,0.70
2023-03-13T23:03:05.017Z,0.50
2023-03-13T23:05:32.457Z,0.50
2023-03-13T23:08:00.447Z,0.60
2023-03-13T23:10:28.116Z,0.60
2023-03-13T23:12:55.727Z,0.50
2023-03-13T23:15:24.604Z,0.52
2023-03-13T23:17:51.920Z,0.50
2023-03-13T23:20:19.799Z,0.57
2023-03-13T23:22:50.069Z,0.52
2023-03-13T23:25:18.751Z,0.90
2023-03-13T23:27:46.240Z,0.65
2023-03-13T23:30:15.855Z,0.50
2023-03-13T23:32:46.097Z,0.50
2023-03-13T23:35:16.897Z,0.52
2023-03-13T23:37:48.237Z,0.50
2023-03-13T23:40:16.034Z,0.40
2023-03-13T23:42:48.105Z,0.82
2023-03-13T23:45:15.756Z,0.40
2023-03-13T23:47:44.105Z,0.50
2023-03-13T23:50:15.861Z,0.68
2023-03-13T23:52:43.561Z,0.52
2023-03-13T23:55:11.367Z,0.60
2023-03-13T23:57:39.469Z,0.43
